sensor_id;sensor_type;location;lat;lon;timestamp;temperature;humidity
51996;DHT22;38010;53.264;6.592;2022-09-12T00:01:42;20.60;99.90
51996;DHT22;38010;53.264;6.592;2022-09-12T00:04:10;20.60;99.90
51996;DHT22;38010;53.264;6.592;2022-09-12T00:06:36;20.60;99.90
51996;DHT22;38010;53.264;6.592;2022-09-12T00:09:09;20.50;99.90
51996;DHT22;38010;53.264;6.592;2022-09-12T00:11:36;20.60;99.90
51996;DHT22;38010;53.264;6.592;2022-09-12T00:14:03;20.60;99.90
51996;DHT22;38010;53.264;6.592;2022-09-12T00:16:31;20.50;99.90
51996;DHT22;38010;53.264;6.592;2022-09-12T00:18:57;20.50;99.90
51996;DHT22;38010;53.264;6.592;2022-09-12T00:21:23;20.50;99.90
51996;DHT22;38010;53.264;6.592;2022-09-12T00:23:49;20.50;99.90
51996;DHT22;38010;53.264;6.592;2022-09-12T00:26:15;20.50;99.90
51996;DHT22;38010;53.264;6.592;2022-09-12T00:28:42;20.50;99.90
51996;DHT22;38010;53.264;6.592;2022-09-12T00:31:20;20.50;99.90
51996;DHT22;38010;53.264;6.592;2022-09-12T00:33:48;20.50;99.90
51996;DHT22;38010;53.264;6.592;2022-09-12T00:36:17;20.50;99.90
51996;DHT22;38010;53.264;6.592;2022-09-12T00:38:44;20.50;99.90
51996;DHT22;38010;53.264;6.592;2022-09-12T00:41:21;20.50;99.90
51996;DHT22;38010;53.264;6.592;2022-09-12T00:43:49;20.50;99.90
51996;DHT22;38010;53.264;6.592;2022-09-12T00:46:19;20.40;99.90
51996;DHT22;38010;53.264;6.592;2022-09-12T00:48:58;20.40;99.90
51996;DHT22;38010;53.264;6.592;2022-09-12T00:51:25;20.40;99.90
51996;DHT22;38010;53.264;6.592;2022-09-12T00:53:52;20.40;99.90
51996;DHT22;38010;53.264;6.592;2022-09-12T00:56:21;20.40;99.90
51996;DHT22;38010;53.264;6.592;2022-09-12T00:59:01;20.40;99.90
51996;DHT22;38010;53.264;6.592;2022-09-12T01:01:28;20.40;99.90
51996;DHT22;38010;53.264;6.592;2022-09-12T01:03:54;20.40;99.90
51996;DHT22;38010;53.264;6.592;2022-09-12T01:06:26;20.40;99.90
51996;DHT22;38010;53.264;6.592;2022-09-12T01:08:53;20.40;99.90
51996;DHT22;38010;53.264;6.592;2022-09-12T01:11:20;20.40;99.90
51996;DHT22;38010;53.264;6.592;2022-09-12T01:13:47;20.40;99.90
51996;DHT22;38010;53.264;6.592;2022-09-12T01:16:14;20.30;99.90
51996;DHT22;38010;53.264;6.592;2022-09-12T01:21:32;20.30;99.90
51996;DHT22;38010;53.264;6.592;2022-09-12T01:27:02;20.30;99.90
51996;DHT22;38010;53.264;6.592;2022-09-12T01:35:59;20.30;99.90
51996;DHT22;38010;53.264;6.592;2022-09-12T01:38:53;20.30;99.90
51996;DHT22;38010;53.264;6.592;2022-09-12T01:47:01;20.30;99.90
51996;DHT22;38010;53.264;6.592;2022-09-12T01:52:19;20.30;99.90
51996;DHT22;38010;53.264;6.592;2022-09-12T01:55:00;20.30;99.90
51996;DHT22;38010;53.264;6.592;2022-09-12T01:57:31;20.30;99.90
51996;DHT22;38010;53.264;6.592;2022-09-12T02:00:03;20.30;99.90
51996;DHT22;38010;53.264;6.592;2022-09-12T02:02:55;20.30;99.90
51996;DHT22;38010;53.264;6.592;2022-09-12T02:05:32;20.30;99.90
51996;DHT22;38010;53.264;6.592;2022-09-12T02:08:18;20.30;99.90
51996;DHT22;38010;53.264;6.592;2022-09-12T02:10:50;20.30;99.90
51996;DHT22;38010;53.264;6.592;2022-09-12T02:15:53;20.30;99.90
51996;DHT22;38010;53.264;6.592;2022-09-12T02:18:24;20.30;99.90
51996;DHT22;38010;53.264;6.592;2022-09-12T02:20:50;20.20;99.90
51996;DHT22;38010;53.264;6.592;2022-09-12T02:23:20;20.20;99.90
51996;DHT22;38010;53.264;6.592;2022-09-12T02:25:48;20.20;99.90
51996;DHT22;38010;53.264;6.592;2022-09-12T02:28:19;20.20;99.90
51996;DHT22;38010;53.264;6.592;2022-09-12T02:39:09;20.20;99.90
51996;DHT22;38010;53.264;6.592;2022-09-12T02:41:35;20.10;99.90
51996;DHT22;38010;53.264;6.592;2022-09-12T02:44:01;20.20;99.90
51996;DHT22;38010;53.264;6.592;2022-09-12T02:46:37;20.10;99.90
51996;DHT22;38010;53.264;6.592;2022-09-12T02:49:04;20.20;99.90
51996;DHT22;38010;53.264;6.592;2022-09-12T02:51:30;20.20;99.90
51996;DHT22;38010;53.264;6.592;2022-09-12T02:53:56;20.20;99.90
51996;DHT22;38010;53.264;6.592;2022-09-12T02:56:30;20.20;99.90
51996;DHT22;38010;53.264;6.592;2022-09-12T02:59:03;20.10;99.90
51996;DHT22;38010;53.264;6.592;2022-09-12T03:05:15;20.10;99.90
51996;DHT22;38010;53.264;6.592;2022-09-12T03:18:20;20.10;99.90
51996;DHT22;38010;53.264;6.592;2022-09-12T03:23:42;20.10;99.90
51996;DHT22;38010;53.264;6.592;2022-09-12T03:26:12;20.10;99.90
51996;DHT22;38010;53.264;6.592;2022-09-12T03:28:41;20.10;99.90
51996;DHT22;38010;53.264;6.592;2022-09-12T03:31:15;20.10;99.90
51996;DHT22;38010;53.264;6.592;2022-09-12T03:33:42;20.10;99.90
51996;DHT22;38010;53.264;6.592;2022-09-12T03:36:20;20.10;99.90
51996;DHT22;38010;53.264;6.592;2022-09-12T03:38:46;20.10;99.90
51996;DHT22;38010;53.264;6.592;2022-09-12T03:41:12;20.10;99.90
51996;DHT22;38010;53.264;6.592;2022-09-12T03:43:37;20.00;99.90
51996;DHT22;38010;53.264;6.592;2022-09-12T03:46:03;20.00;99.90
51996;DHT22;38010;53.264;6.592;2022-09-12T03:48:29;20.00;99.90
51996;DHT22;38010;53.264;6.592;2022-09-12T03:51:02;20.00;99.90
51996;DHT22;38010;53.264;6.592;2022-09-12T03:53:28;20.00;99.90
51996;DHT22;38010;53.264;6.592;2022-09-12T03:55:54;20.00;99.90
51996;DHT22;38010;53.264;6.592;2022-09-12T03:58:20;20.00;99.90
51996;DHT22;38010;53.264;6.592;2022-09-12T04:00:45;20.00;99.90
51996;DHT22;38010;53.264;6.592;2022-09-12T04:03:11;20.00;99.90
51996;DHT22;38010;53.264;6.592;2022-09-12T04:05:37;20.00;99.90
51996;DHT22;38010;53.264;6.592;2022-09-12T04:08:02;20.00;99.90
51996;DHT22;38010;53.264;6.592;2022-09-12T04:10:28;20.00;99.90
51996;DHT22;38010;53.264;6.592;2022-09-12T04:12:53;20.00;99.90
51996;DHT22;38010;53.264;6.592;2022-09-12T04:15:19;20.00;99.90
51996;DHT22;38010;53.264;6.592;2022-09-12T04:17:45;20.00;99.90
51996;DHT22;38010;53.264;6.592;2022-09-12T04:20:10;20.00;99.90
51996;DHT22;38010;53.264;6.592;2022-09-12T04:22:39;20.00;99.90
51996;DHT22;38010;53.264;6.592;2022-09-12T04:25:05;20.00;99.90
51996;DHT22;38010;53.264;6.592;2022-09-12T04:27:30;20.00;99.90
51996;DHT22;38010;53.264;6.592;2022-09-12T04:29:57;20.00;99.90
51996;DHT22;38010;53.264;6.592;2022-09-12T04:32:22;20.00;99.90
51996;DHT22;38010;53.264;6.592;2022-09-12T04:34:48;20.00;99.90
51996;DHT22;38010;53.264;6.592;2022-09-12T04:37:14;20.00;99.90
51996;DHT22;38010;53.264;6.592;2022-09-12T04:39:44;19.90;99.90
51996;DHT22;38010;53.264;6.592;2022-09-12T04:42:09;19.90;99.90
51996;DHT22;38010;53.264;6.592;2022-09-12T04:44:35;19.90;99.90
51996;DHT22;38010;53.264;6.592;2022-09-12T04:47:01;19.90;99.90
51996;DHT22;38010;53.264;6.592;2022-09-12T04:49:27;19.90;99.90
51996;DHT22;38010;53.264;6.592;2022-09-12T04:51:53;19.90;99.90
51996;DHT22;38010;53.264;6.592;2022-09-12T04:54:21;19.90;99.90
51996;DHT22;38010;53.264;6.592;2022-09-12T04:56:49;19.90;99.90
51996;DHT22;38010;53.264;6.592;2022-09-12T04:59:17;19.90;99.90
51996;DHT22;38010;53.264;6.592;2022-09-12T05:01:43;19.90;99.90
51996;DHT22;38010;53.264;6.592;2022-09-12T05:04:10;19.90;99.90
51996;DHT22;38010;53.264;6.592;2022-09-12T05:06:38;19.90;99.90
51996;DHT22;38010;53.264;6.592;2022-09-12T05:09:07;19.90;99.90
51996;DHT22;38010;53.264;6.592;2022-09-12T05:11:35;19.90;99.90
51996;DHT22;38010;53.264;6.592;2022-09-12T05:14:01;19.90;99.90
51996;DHT22;38010;53.264;6.592;2022-09-12T05:16:27;19.90;99.90
51996;DHT22;38010;53.264;6.592;2022-09-12T05:18:54;19.90;99.90
51996;DHT22;38010;53.264;6.592;2022-09-12T05:21:21;19.90;99.90
51996;DHT22;38010;53.264;6.592;2022-09-12T05:23:51;19.90;99.90
51996;DHT22;38010;53.264;6.592;2022-09-12T05:26:17;19.90;99.90
51996;DHT22;38010;53.264;6.592;2022-09-12T05:28:45;19.90;99.90
51996;DHT22;38010;53.264;6.592;2022-09-12T05:31:17;19.90;99.90
51996;DHT22;38010;53.264;6.592;2022-09-12T05:33:44;19.90;99.90
51996;DHT22;38010;53.264;6.592;2022-09-12T05:36:18;19.90;99.90
51996;DHT22;38010;53.264;6.592;2022-09-12T05:38:45;19.90;99.90
51996;DHT22;38010;53.264;6.592;2022-09-12T05:41:13;19.90;99.90
51996;DHT22;38010;53.264;6.592;2022-09-12T05:43:41;19.90;99.90
51996;DHT22;38010;53.264;6.592;2022-09-12T05:46:18;19.90;99.90
51996;DHT22;38010;53.264;6.592;2022-09-12T05:48:45;19.90;99.90
51996;DHT22;38010;53.264;6.592;2022-09-12T05:51:22;19.90;99.90
51996;DHT22;38010;53.264;6.592;2022-09-12T05:53:53;19.90;99.90
51996;DHT22;38010;53.264;6.592;2022-09-12T05:56:21;19.90;99.90
51996;DHT22;38010;53.264;6.592;2022-09-12T06:01:23;20.00;99.90
51996;DHT22;38010;53.264;6.592;2022-09-12T06:03:52;20.00;99.90
51996;DHT22;38010;53.264;6.592;2022-09-12T06:06:20;20.00;99.90
51996;DHT22;38010;53.264;6.592;2022-09-12T06:08:48;20.00;99.90
51996;DHT22;38010;53.264;6.592;2022-09-12T06:11:22;20.00;99.90
51996;DHT22;38010;53.264;6.592;2022-09-12T06:13:49;20.00;99.90
51996;DHT22;38010;53.264;6.592;2022-09-12T06:16:18;20.00;99.90
51996;DHT22;38010;53.264;6.592;2022-09-12T06:18:49;20.00;99.90
51996;DHT22;38010;53.264;6.592;2022-09-12T06:21:15;20.00;99.90
51996;DHT22;38010;53.264;6.592;2022-09-12T06:23:41;20.00;99.90
51996;DHT22;38010;53.264;6.592;2022-09-12T06:26:09;20.00;99.90
51996;DHT22;38010;53.264;6.592;2022-09-12T06:28:37;20.00;99.90
51996;DHT22;38010;53.264;6.592;2022-09-12T06:31:07;20.00;99.90
51996;DHT22;38010;53.264;6.592;2022-09-12T06:33:33;20.00;99.90
51996;DHT22;38010;53.264;6.592;2022-09-12T06:36:11;20.00;99.90
51996;DHT22;38010;53.264;6.592;2022-09-12T06:38:38;20.00;99.90
51996;DHT22;38010;53.264;6.592;2022-09-12T06:41:06;20.00;99.90
51996;DHT22;38010;53.264;6.592;2022-09-12T06:43:33;20.00;99.90
51996;DHT22;38010;53.264;6.592;2022-09-12T06:45:59;20.00;99.90
51996;DHT22;38010;53.264;6.592;2022-09-12T06:48:25;20.10;99.90
51996;DHT22;38010;53.264;6.592;2022-09-12T06:51:12;20.10;99.90
51996;DHT22;38010;53.264;6.592;2022-09-12T06:53:39;20.00;99.90
51996;DHT22;38010;53.264;6.592;2022-09-12T06:56:10;20.10;99.90
51996;DHT22;38010;53.264;6.592;2022-09-12T06:58:36;20.00;99.90
51996;DHT22;38010;53.264;6.592;2022-09-12T07:01:06;20.00;99.90
51996;DHT22;38010;53.264;6.592;2022-09-12T07:03:33;20.10;99.90
51996;DHT22;38010;53.264;6.592;2022-09-12T07:06:07;20.10;99.90
51996;DHT22;38010;53.264;6.592;2022-09-12T07:08:34;20.00;99.90
51996;DHT22;38010;53.264;6.592;2022-09-12T07:11:28;20.10;99.90
51996;DHT22;38010;53.264;6.592;2022-09-12T07:13:54;20.10;99.90
51996;DHT22;38010;53.264;6.592;2022-09-12T07:16:23;20.10;99.90
51996;DHT22;38010;53.264;6.592;2022-09-12T07:18:50;20.10;99.90
51996;DHT22;38010;53.264;6.592;2022-09-12T07:21:16;20.10;99.90
51996;DHT22;38010;53.264;6.592;2022-09-12T07:23:42;20.10;99.90
51996;DHT22;38010;53.264;6.592;2022-09-12T07:26:10;20.10;99.90
51996;DHT22;38010;53.264;6.592;2022-09-12T07:28:36;20.00;99.90
51996;DHT22;38010;53.264;6.592;2022-09-12T07:31:10;20.10;99.90
51996;DHT22;38010;53.264;6.592;2022-09-12T07:33:36;20.10;99.90
51996;DHT22;38010;53.264;6.592;2022-09-12T07:36:07;20.10;99.90
51996;DHT22;38010;53.264;6.592;2022-09-12T07:38:36;20.10;99.90
51996;DHT22;38010;53.264;6.592;2022-09-12T07:41:12;20.10;99.90
51996;DHT22;38010;53.264;6.592;2022-09-12T07:43:39;20.10;99.90
51996;DHT22;38010;53.264;6.592;2022-09-12T07:46:06;20.20;99.90
51996;DHT22;38010;53.264;6.592;2022-09-12T07:48:32;20.10;99.90
51996;DHT22;38010;53.264;6.592;2022-09-12T07:50:59;20.20;99.90
51996;DHT22;38010;53.264;6.592;2022-09-12T07:53:29;20.20;99.90
51996;DHT22;38010;53.264;6.592;2022-09-12T07:55:55;20.10;99.90
51996;DHT22;38010;53.264;6.592;2022-09-12T07:58:24;20.20;99.90
51996;DHT22;38010;53.264;6.592;2022-09-12T08:00:50;20.20;99.90
51996;DHT22;38010;53.264;6.592;2022-09-12T08:03:16;20.20;99.90
51996;DHT22;38010;53.264;6.592;2022-09-12T08:05:42;20.20;99.90
51996;DHT22;38010;53.264;6.592;2022-09-12T08:08:08;20.20;99.90
51996;DHT22;38010;53.264;6.592;2022-09-12T08:10:34;20.20;99.90
51996;DHT22;38010;53.264;6.592;2022-09-12T08:13:00;20.20;99.90
51996;DHT22;38010;53.264;6.592;2022-09-12T08:15:25;20.20;99.90
51996;DHT22;38010;53.264;6.592;2022-09-12T08:17:51;20.20;99.90
51996;DHT22;38010;53.264;6.592;2022-09-12T08:20:17;20.20;99.90
51996;DHT22;38010;53.264;6.592;2022-09-12T08:22:43;20.20;99.90
51996;DHT22;38010;53.264;6.592;2022-09-12T08:25:09;20.20;99.90
51996;DHT22;38010;53.264;6.592;2022-09-12T08:27:35;20.10;99.90
51996;DHT22;38010;53.264;6.592;2022-09-12T08:30:00;20.20;99.90
51996;DHT22;38010;53.264;6.592;2022-09-12T08:32:26;20.20;99.90
51996;DHT22;38010;53.264;6.592;2022-09-12T08:34:52;20.20;99.90
51996;DHT22;38010;53.264;6.592;2022-09-12T08:37:18;20.20;99.90
51996;DHT22;38010;53.264;6.592;2022-09-12T08:39:44;20.20;99.90
51996;DHT22;38010;53.264;6.592;2022-09-12T08:42:16;20.30;99.90
51996;DHT22;38010;53.264;6.592;2022-09-12T08:47:24;20.20;99.90
51996;DHT22;38010;53.264;6.592;2022-09-12T08:52:43;20.20;99.90
51996;DHT22;38010;53.264;6.592;2022-09-12T08:55:37;20.20;99.90
51996;DHT22;38010;53.264;6.592;2022-09-12T09:22:54;20.30;99.90
51996;DHT22;38010;53.264;6.592;2022-09-12T09:25:25;20.30;99.90
51996;DHT22;38010;53.264;6.592;2022-09-12T09:28:04;20.30;99.90
51996;DHT22;38010;53.264;6.592;2022-09-12T09:30:34;20.30;99.90
51996;DHT22;38010;53.264;6.592;2022-09-12T09:33:02;20.20;99.90
51996;DHT22;38010;53.264;6.592;2022-09-12T09:35:52;20.30;99.90
51996;DHT22;38010;53.264;6.592;2022-09-12T09:38:24;20.30;99.90
51996;DHT22;38010;53.264;6.592;2022-09-12T09:43:22;20.30;99.90
51996;DHT22;38010;53.264;6.592;2022-09-12T09:45:52;20.30;99.90
51996;DHT22;38010;53.264;6.592;2022-09-12T09:48:22;20.30;99.90
51996;DHT22;38010;53.264;6.592;2022-09-12T09:50:50;20.30;99.90
51996;DHT22;38010;53.264;6.592;2022-09-12T09:55:49;20.30;99.90
51996;DHT22;38010;53.264;6.592;2022-09-12T09:58:33;20.30;99.90
51996;DHT22;38010;53.264;6.592;2022-09-12T10:01:13;20.30;99.90
51996;DHT22;38010;53.264;6.592;2022-09-12T10:03:53;20.30;99.90
51996;DHT22;38010;53.264;6.592;2022-09-12T10:08:45;20.30;99.90
51996;DHT22;38010;53.264;6.592;2022-09-12T10:14:02;20.30;99.90
51996;DHT22;38010;53.264;6.592;2022-09-12T10:16:31;20.30;99.90
51996;DHT22;38010;53.264;6.592;2022-09-12T10:19:02;20.30;99.90
51996;DHT22;38010;53.264;6.592;2022-09-12T10:21:38;20.40;99.90
51996;DHT22;38010;53.264;6.592;2022-09-12T10:26:37;20.30;99.90
51996;DHT22;38010;53.264;6.592;2022-09-12T10:29:22;20.40;99.90
51996;DHT22;38010;53.264;6.592;2022-09-12T10:31:54;20.40;99.90
51996;DHT22;38010;53.264;6.592;2022-09-12T10:34:26;20.40;99.90
51996;DHT22;38010;53.264;6.592;2022-09-12T10:36:59;20.40;99.90
51996;DHT22;38010;53.264;6.592;2022-09-12T10:39:26;20.40;99.90
51996;DHT22;38010;53.264;6.592;2022-09-12T10:41:51;20.40;99.90
51996;DHT22;38010;53.264;6.592;2022-09-12T10:44:24;20.50;99.90
51996;DHT22;38010;53.264;6.592;2022-09-12T10:46:53;20.40;99.90
51996;DHT22;38010;53.264;6.592;2022-09-12T10:49:30;20.40;99.90
51996;DHT22;38010;53.264;6.592;2022-09-12T10:52:14;20.50;99.90
51996;DHT22;38010;53.264;6.592;2022-09-12T10:54:43;20.40;99.90
51996;DHT22;38010;53.264;6.592;2022-09-12T11:00:11;20.50;99.90
51996;DHT22;38010;53.264;6.592;2022-09-12T11:03:15;20.50;99.90
51996;DHT22;38010;53.264;6.592;2022-09-12T11:05:54;20.40;99.90
51996;DHT22;38010;53.264;6.592;2022-09-12T11:08:52;20.50;99.90
51996;DHT22;38010;53.264;6.592;2022-09-12T11:20:09;20.50;99.90
51996;DHT22;38010;53.264;6.592;2022-09-12T11:22:53;20.50;99.90
51996;DHT22;38010;53.264;6.592;2022-09-12T11:33:37;20.50;99.90
51996;DHT22;38010;53.264;6.592;2022-09-12T11:36:15;20.50;99.90
51996;DHT22;38010;53.264;6.592;2022-09-12T11:41:16;20.60;99.90
51996;DHT22;38010;53.264;6.592;2022-09-12T11:46:35;20.60;99.90
51996;DHT22;38010;53.264;6.592;2022-09-12T11:51:55;20.60;99.90
51996;DHT22;38010;53.264;6.592;2022-09-12T11:57:07;20.70;99.90
51996;DHT22;38010;53.264;6.592;2022-09-12T12:08:05;20.80;99.90
51996;DHT22;38010;53.264;6.592;2022-09-12T12:10:41;20.80;99.90
51996;DHT22;38010;53.264;6.592;2022-09-12T12:13:32;20.80;99.90
51996;DHT22;38010;53.264;6.592;2022-09-12T12:16:01;20.80;99.90
51996;DHT22;38010;53.264;6.592;2022-09-12T12:18:30;20.80;99.90
51996;DHT22;38010;53.264;6.592;2022-09-12T12:29:11;20.90;99.90
51996;DHT22;38010;53.264;6.592;2022-09-12T12:34:38;20.90;99.90
51996;DHT22;38010;53.264;6.592;2022-09-12T12:39:57;21.00;99.90
51996;DHT22;38010;53.264;6.592;2022-09-12T12:45:00;21.10;99.90
51996;DHT22;38010;53.264;6.592;2022-09-12T12:47:33;21.10;99.90
51996;DHT22;38010;53.264;6.592;2022-09-12T12:55:24;21.20;99.90
51996;DHT22;38010;53.264;6.592;2022-09-12T12:57:54;21.20;99.90
51996;DHT22;38010;53.264;6.592;2022-09-12T13:03:04;21.30;99.90
51996;DHT22;38010;53.264;6.592;2022-09-12T13:05:50;21.30;99.90
51996;DHT22;38010;53.264;6.592;2022-09-12T13:10:55;21.30;99.90
51996;DHT22;38010;53.264;6.592;2022-09-12T13:13:37;21.40;99.90
51996;DHT22;38010;53.264;6.592;2022-09-12T13:16:03;21.50;99.90
51996;DHT22;38010;53.264;6.592;2022-09-12T13:21:09;21.60;99.90
51996;DHT22;38010;53.264;6.592;2022-09-12T13:23:36;21.70;99.90
51996;DHT22;38010;53.264;6.592;2022-09-12T13:26:07;21.80;99.90
51996;DHT22;38010;53.264;6.592;2022-09-12T13:28:34;21.90;99.90
51996;DHT22;38010;53.264;6.592;2022-09-12T13:31:10;22.10;99.90
51996;DHT22;38010;53.264;6.592;2022-09-12T13:33:45;22.20;99.90
51996;DHT22;38010;53.264;6.592;2022-09-12T13:44:47;22.60;99.90
51996;DHT22;38010;53.264;6.592;2022-09-12T13:47:18;22.70;99.90
51996;DHT22;38010;53.264;6.592;2022-09-12T13:49:47;22.70;99.90
51996;DHT22;38010;53.264;6.592;2022-09-12T13:52:24;22.70;99.90
51996;DHT22;38010;53.264;6.592;2022-09-12T13:54:53;22.80;99.90
51996;DHT22;38010;53.264;6.592;2022-09-12T13:57:38;22.80;99.90
51996;DHT22;38010;53.264;6.592;2022-09-12T14:00:26;22.70;99.90
51996;DHT22;38010;53.264;6.592;2022-09-12T14:02:52;22.80;99.90
51996;DHT22;38010;53.264;6.592;2022-09-12T14:05:39;22.80;99.90
51996;DHT22;38010;53.264;6.592;2022-09-12T14:08:08;22.70;99.90
51996;DHT22;38010;53.264;6.592;2022-09-12T14:10:37;22.70;99.90
51996;DHT22;38010;53.264;6.592;2022-09-12T14:13:26;22.70;99.90
51996;DHT22;38010;53.264;6.592;2022-09-12T14:15:53;22.60;99.90
51996;DHT22;38010;53.264;6.592;2022-09-12T14:18:26;22.60;99.90
51996;DHT22;38010;53.264;6.592;2022-09-12T14:20:53;22.50;99.90
51996;DHT22;38010;53.264;6.592;2022-09-12T14:23:28;22.50;99.90
51996;DHT22;38010;53.264;6.592;2022-09-12T14:26:02;22.40;99.90
51996;DHT22;38010;53.264;6.592;2022-09-12T14:28:31;22.40;99.90
51996;DHT22;38010;53.264;6.592;2022-09-12T14:31:19;22.30;99.90
51996;DHT22;38010;53.264;6.592;2022-09-12T14:33:48;22.30;99.90
51996;DHT22;38010;53.264;6.592;2022-09-12T14:36:31;22.20;99.90
51996;DHT22;38010;53.264;6.592;2022-09-12T14:39:02;22.10;99.90
51996;DHT22;38010;53.264;6.592;2022-09-12T14:41:30;22.10;99.90
51996;DHT22;38010;53.264;6.592;2022-09-12T14:43:59;22.10;99.90
51996;DHT22;38010;53.264;6.592;2022-09-12T14:46:32;22.00;99.90
51996;DHT22;38010;53.264;6.592;2022-09-12T14:49:24;22.00;99.90
51996;DHT22;38010;53.264;6.592;2022-09-12T14:51:58;21.90;99.90
51996;DHT22;38010;53.264;6.592;2022-09-12T14:57:03;21.90;99.90
51996;DHT22;38010;53.264;6.592;2022-09-12T15:05:14;22.00;99.90
51996;DHT22;38010;53.264;6.592;2022-09-12T15:07:43;22.00;99.90
51996;DHT22;38010;53.264;6.592;2022-09-12T15:10:33;22.00;99.90
51996;DHT22;38010;53.264;6.592;2022-09-12T15:15:39;21.90;99.90
51996;DHT22;38010;53.264;6.592;2022-09-12T15:18:05;21.90;99.90
51996;DHT22;38010;53.264;6.592;2022-09-12T15:20:39;21.90;99.90
51996;DHT22;38010;53.264;6.592;2022-09-12T15:23:09;21.90;99.90
51996;DHT22;38010;53.264;6.592;2022-09-12T15:25:36;21.90;99.90
51996;DHT22;38010;53.264;6.592;2022-09-12T15:28:11;21.80;99.90
51996;DHT22;38010;53.264;6.592;2022-09-12T15:30:39;21.80;99.90
51996;DHT22;38010;53.264;6.592;2022-09-12T15:33:05;21.80;99.90
51996;DHT22;38010;53.264;6.592;2022-09-12T15:35:31;21.80;99.90
51996;DHT22;38010;53.264;6.592;2022-09-12T15:37:57;21.80;99.90
51996;DHT22;38010;53.264;6.592;2022-09-12T15:40:23;21.80;99.90
51996;DHT22;38010;53.264;6.592;2022-09-12T15:42:50;21.80;99.90
51996;DHT22;38010;53.264;6.592;2022-09-12T15:45:24;21.80;99.90
51996;DHT22;38010;53.264;6.592;2022-09-12T15:47:50;21.70;99.90
51996;DHT22;38010;53.264;6.592;2022-09-12T15:50:16;21.70;99.90
51996;DHT22;38010;53.264;6.592;2022-09-12T15:52:42;21.80;99.90
51996;DHT22;38010;53.264;6.592;2022-09-12T15:55:31;21.80;99.90
51996;DHT22;38010;53.264;6.592;2022-09-12T15:57:58;21.80;99.90
51996;DHT22;38010;53.264;6.592;2022-09-12T16:00:24;21.80;99.90
51996;DHT22;38010;53.264;6.592;2022-09-12T16:02:51;21.80;99.90
51996;DHT22;38010;53.264;6.592;2022-09-12T16:05:20;21.80;99.90
51996;DHT22;38010;53.264;6.592;2022-09-12T16:07:46;21.80;99.90
51996;DHT22;38010;53.264;6.592;2022-09-12T16:10:16;21.80;99.90
51996;DHT22;38010;53.264;6.592;2022-09-12T16:12:43;21.80;99.90
51996;DHT22;38010;53.264;6.592;2022-09-12T16:15:16;21.80;99.90
51996;DHT22;38010;53.264;6.592;2022-09-12T16:17:42;21.70;99.90
51996;DHT22;38010;53.264;6.592;2022-09-12T16:20:09;21.70;99.90
51996;DHT22;38010;53.264;6.592;2022-09-12T16:22:35;21.70;99.90
51996;DHT22;38010;53.264;6.592;2022-09-12T16:25:01;21.70;99.90
51996;DHT22;38010;53.264;6.592;2022-09-12T16:27:26;21.70;99.90
51996;DHT22;38010;53.264;6.592;2022-09-12T16:29:52;21.60;99.90
51996;DHT22;38010;53.264;6.592;2022-09-12T16:32:17;21.60;99.90
51996;DHT22;38010;53.264;6.592;2022-09-12T16:34:43;21.60;99.90
51996;DHT22;38010;53.264;6.592;2022-09-12T16:37:09;21.60;99.90
51996;DHT22;38010;53.264;6.592;2022-09-12T16:39:35;21.60;99.90
51996;DHT22;38010;53.264;6.592;2022-09-12T16:42:01;21.50;99.90
51996;DHT22;38010;53.264;6.592;2022-09-12T16:44:26;21.50;99.90
51996;DHT22;38010;53.264;6.592;2022-09-12T16:46:52;21.50;99.90
51996;DHT22;38010;53.264;6.592;2022-09-12T16:49:18;21.50;99.90
51996;DHT22;38010;53.264;6.592;2022-09-12T16:51:44;21.50;99.90
51996;DHT22;38010;53.264;6.592;2022-09-12T16:54:13;21.50;99.90
51996;DHT22;38010;53.264;6.592;2022-09-12T16:56:39;21.50;99.90
51996;DHT22;38010;53.264;6.592;2022-09-12T16:59:05;21.50;99.90
51996;DHT22;38010;53.264;6.592;2022-09-12T17:01:31;21.40;99.90
51996;DHT22;38010;53.264;6.592;2022-09-12T17:03:59;21.40;99.90
51996;DHT22;38010;53.264;6.592;2022-09-12T17:06:26;21.40;99.90
51996;DHT22;38010;53.264;6.592;2022-09-12T17:08:54;21.40;99.90
51996;DHT22;38010;53.264;6.592;2022-09-12T17:11:25;21.40;99.90
51996;DHT22;38010;53.264;6.592;2022-09-12T17:13:53;21.40;99.90
51996;DHT22;38010;53.264;6.592;2022-09-12T17:16:20;21.40;99.90
51996;DHT22;38010;53.264;6.592;2022-09-12T17:18:46;21.40;99.90
51996;DHT22;38010;53.264;6.592;2022-09-12T17:21:13;21.40;99.90
51996;DHT22;38010;53.264;6.592;2022-09-12T17:23:39;21.30;99.90
51996;DHT22;38010;53.264;6.592;2022-09-12T17:26:06;21.30;99.90
51996;DHT22;38010;53.264;6.592;2022-09-12T17:28:32;21.30;99.90
51996;DHT22;38010;53.264;6.592;2022-09-12T17:31:03;21.30;99.90
51996;DHT22;38010;53.264;6.592;2022-09-12T17:33:29;21.30;99.90
51996;DHT22;38010;53.264;6.592;2022-09-12T17:36:03;21.30;99.90
51996;DHT22;38010;53.264;6.592;2022-09-12T17:38:31;21.20;99.90
51996;DHT22;38010;53.264;6.592;2022-09-12T17:41:07;21.30;99.90
51996;DHT22;38010;53.264;6.592;2022-09-12T17:43:34;21.20;99.90
51996;DHT22;38010;53.264;6.592;2022-09-12T17:46:00;21.30;99.90
51996;DHT22;38010;53.264;6.592;2022-09-12T17:48:25;21.20;99.90
51996;DHT22;38010;53.264;6.592;2022-09-12T17:50:51;21.20;99.90
51996;DHT22;38010;53.264;6.592;2022-09-12T17:53:17;21.20;99.90
51996;DHT22;38010;53.264;6.592;2022-09-12T17:55:43;21.20;99.90
51996;DHT22;38010;53.264;6.592;2022-09-12T17:58:08;21.20;99.90
51996;DHT22;38010;53.264;6.592;2022-09-12T18:00:35;21.20;99.90
51996;DHT22;38010;53.264;6.592;2022-09-12T18:03:23;21.20;99.90
51996;DHT22;38010;53.264;6.592;2022-09-12T18:05:52;21.20;99.90
51996;DHT22;38010;53.264;6.592;2022-09-12T18:08:19;21.20;99.90
51996;DHT22;38010;53.264;6.592;2022-09-12T18:10:45;21.20;99.90
51996;DHT22;38010;53.264;6.592;2022-09-12T18:13:11;21.20;99.90
51996;DHT22;38010;53.264;6.592;2022-09-12T18:15:37;21.10;99.90
51996;DHT22;38010;53.264;6.592;2022-09-12T18:18:03;21.10;99.90
51996;DHT22;38010;53.264;6.592;2022-09-12T18:20:29;21.10;99.90
51996;DHT22;38010;53.264;6.592;2022-09-12T18:22:55;21.10;99.90
51996;DHT22;38010;53.264;6.592;2022-09-12T18:25:20;21.10;99.90
51996;DHT22;38010;53.264;6.592;2022-09-12T18:27:46;21.10;99.90
51996;DHT22;38010;53.264;6.592;2022-09-12T18:30:12;21.10;99.90
51996;DHT22;38010;53.264;6.592;2022-09-12T18:32:39;21.10;99.90
51996;DHT22;38010;53.264;6.592;2022-09-12T18:35:05;21.10;99.90
51996;DHT22;38010;53.264;6.592;2022-09-12T18:37:31;21.10;99.90
51996;DHT22;38010;53.264;6.592;2022-09-12T18:39:57;21.10;99.90
51996;DHT22;38010;53.264;6.592;2022-09-12T18:42:25;21.10;99.90
51996;DHT22;38010;53.264;6.592;2022-09-12T18:44:51;21.10;99.90
51996;DHT22;38010;53.264;6.592;2022-09-12T18:47:16;21.10;99.90
51996;DHT22;38010;53.264;6.592;2022-09-12T18:49:42;21.10;99.90